sensor_id;sensor_type;location;lat;lon;timestamp;P1;durP1;ratioP1;P2;durP2;ratioP2
40072;SDS011;25774;52.256;9.356;2023-04-25T00:00:27;11.30;;;3.30;;
40072;SDS011;25774;52.256;9.356;2023-04-25T00:02:53;10.63;;;2.90;;
40072;SDS011;25774;52.256;9.356;2023-04-25T00:05:18;8.70;;;3.27;;
40072;SDS011;25774;52.256;9.356;2023-04-25T00:07:45;8.15;;;2.70;;
40072;SDS011;25774;52.256;9.356;2023-04-25T00:12:36;7.10;;;2.80;;
40072;SDS011;25774;52.256;9.356;2023-04-25T00:15:02;11.52;;;3.70;;
40072;SDS011;25774;52.256;9.356;2023-04-25T00:17:28;8.20;;;2.47;;
40072;SDS011;25774;52.256;9.356;2023-04-25T00:19:53;13.47;;;3.20;;
40072;SDS011;25774;52.256;9.356;2023-04-25T00:22:20;5.10;;;2.83;;
40072;SDS011;25774;52.256;9.356;2023-04-25T00:24:45;9.00;;;3.15;;
40072;SDS011;25774;52.256;9.356;2023-04-25T00:27:10;11.23;;;2.85;;
40072;SDS011;25774;52.256;9.356;2023-04-25T00:29:35;5.00;;;2.47;;
40072;SDS011;25774;52.256;9.356;2023-04-25T00:32:01;10.63;;;3.67;;
40072;SDS011;25774;52.256;9.356;2023-04-25T00:34:26;11.27;;;2.80;;
40072;SDS011;25774;52.256;9.356;2023-04-25T00:36:52;12.37;;;3.97;;
40072;SDS011;25774;52.256;9.356;2023-04-25T00:39:18;5.07;;;3.20;;
40072;SDS011;25774;52.256;9.356;2023-04-25T00:41:43;10.23;;;3.87;;
40072;SDS011;25774;52.256;9.356;2023-04-25T00:44:10;9.57;;;3.53;;
40072;SDS011;25774;52.256;9.356;2023-04-25T00:46:36;8.57;;;3.10;;
40072;SDS011;25774;52.256;9.356;2023-04-25T00:49:01;10.40;;;3.83;;
40072;SDS011;25774;52.256;9.356;2023-04-25T00:51:27;7.07;;;3.20;;
40072;SDS011;25774;52.256;9.356;2023-04-25T00:53:52;9.60;;;3.43;;
40072;SDS011;25774;52.256;9.356;2023-04-25T00:56:18;8.30;;;3.03;;
40072;SDS011;25774;52.256;9.356;2023-04-25T00:58:44;10.47;;;3.60;;
40072;SDS011;25774;52.256;9.356;2023-04-25T01:01:10;10.45;;;3.97;;
40072;SDS011;25774;52.256;9.356;2023-04-25T01:03:37;7.63;;;3.45;;
40072;SDS011;25774;52.256;9.356;2023-04-25T01:06:05;10.68;;;4.15;;
40072;SDS011;25774;52.256;9.356;2023-04-25T01:08:31;13.53;;;4.40;;
40072;SDS011;25774;52.256;9.356;2023-04-25T01:10:56;6.43;;;3.60;;
40072;SDS011;25774;52.256;9.356;2023-04-25T01:13:21;11.27;;;3.60;;
40072;SDS011;25774;52.256;9.356;2023-04-25T01:15:46;11.53;;;4.07;;
40072;SDS011;25774;52.256;9.356;2023-04-25T01:18:12;11.23;;;3.92;;
40072;SDS011;25774;52.256;9.356;2023-04-25T01:20:37;7.67;;;4.03;;
40072;SDS011;25774;52.256;9.356;2023-04-25T01:23:03;9.45;;;4.03;;
40072;SDS011;25774;52.256;9.356;2023-04-25T01:25:29;11.30;;;3.83;;
40072;SDS011;25774;52.256;9.356;2023-04-25T01:30:20;8.03;;;3.77;;
40072;SDS011;25774;52.256;9.356;2023-04-25T01:32:45;11.50;;;3.97;;
40072;SDS011;25774;52.256;9.356;2023-04-25T01:35:11;10.48;;;3.47;;
40072;SDS011;25774;52.256;9.356;2023-04-25T01:37:37;11.70;;;4.00;;
40072;SDS011;25774;52.256;9.356;2023-04-25T01:40:02;9.60;;;3.63;;
40072;SDS011;25774;52.256;9.356;2023-04-25T01:42:30;8.27;;;4.07;;
40072;SDS011;25774;52.256;9.356;2023-04-25T01:44:55;9.97;;;3.30;;
40072;SDS011;25774;52.256;9.356;2023-04-25T01:47:20;10.40;;;4.20;;
40072;SDS011;25774;52.256;9.356;2023-04-25T01:49:46;7.87;;;4.17;;
40072;SDS011;25774;52.256;9.356;2023-04-25T01:52:11;10.57;;;4.50;;
40072;SDS011;25774;52.256;9.356;2023-04-25T01:54:36;8.83;;;4.30;;
40072;SDS011;25774;52.256;9.356;2023-04-25T01:57:01;12.50;;;4.40;;
40072;SDS011;25774;52.256;9.356;2023-04-25T01:59:26;7.13;;;3.40;;
40072;SDS011;25774;52.256;9.356;2023-04-25T02:01:52;7.67;;;4.10;;
40072;SDS011;25774;52.256;9.356;2023-04-25T02:04:18;9.50;;;3.77;;
40072;SDS011;25774;52.256;9.356;2023-04-25T02:06:43;9.05;;;3.83;;
40072;SDS011;25774;52.256;9.356;2023-04-25T02:09:08;7.83;;;3.63;;
40072;SDS011;25774;52.256;9.356;2023-04-25T02:11:34;8.53;;;3.97;;
40072;SDS011;25774;52.256;9.356;2023-04-25T02:13:59;17.20;;;4.37;;
40072;SDS011;25774;52.256;9.356;2023-04-25T02:16:24;7.40;;;3.23;;
40072;SDS011;25774;52.256;9.356;2023-04-25T02:18:50;7.88;;;3.40;;
40072;SDS011;25774;52.256;9.356;2023-04-25T02:21:17;11.98;;;4.18;;
40072;SDS011;25774;52.256;9.356;2023-04-25T02:23:43;9.93;;;3.73;;
40072;SDS011;25774;52.256;9.356;2023-04-25T02:26:12;7.75;;;2.95;;
40072;SDS011;25774;52.256;9.356;2023-04-25T02:28:38;7.22;;;3.00;;
40072;SDS011;25774;52.256;9.356;2023-04-25T02:31:03;14.37;;;3.00;;
40072;SDS011;25774;52.256;9.356;2023-04-25T02:33:28;8.87;;;2.83;;
40072;SDS011;25774;52.256;9.356;2023-04-25T02:35:53;6.53;;;2.83;;
40072;SDS011;25774;52.256;9.356;2023-04-25T02:38:19;9.17;;;3.03;;
40072;SDS011;25774;52.256;9.356;2023-04-25T02:40:45;9.93;;;2.83;;
40072;SDS011;25774;52.256;9.356;2023-04-25T02:43:10;17.13;;;3.50;;
40072;SDS011;25774;52.256;9.356;2023-04-25T02:45:35;10.47;;;2.30;;
40072;SDS011;25774;52.256;9.356;2023-04-25T02:48:01;15.47;;;3.40;;
40072;SDS011;25774;52.256;9.356;2023-04-25T02:50:26;16.27;;;3.03;;
40072;SDS011;25774;52.256;9.356;2023-04-25T02:52:52;12.43;;;2.77;;
40072;SDS011;25774;52.256;9.356;2023-04-25T02:55:17;5.97;;;1.93;;
40072;SDS011;25774;52.256;9.356;2023-04-25T02:57:42;6.93;;;2.53;;
40072;SDS011;25774;52.256;9.356;2023-04-25T03:00:07;5.93;;;1.73;;
40072;SDS011;25774;52.256;9.356;2023-04-25T03:02:33;9.77;;;2.33;;
40072;SDS011;25774;52.256;9.356;2023-04-25T03:04:58;6.13;;;2.43;;
40072;SDS011;25774;52.256;9.356;2023-04-25T03:07:24;15.20;;;2.23;;
40072;SDS011;25774;52.256;9.356;2023-04-25T03:09:50;8.55;;;1.90;;
40072;SDS011;25774;52.256;9.356;2023-04-25T03:12:15;10.07;;;2.27;;
40072;SDS011;25774;52.256;9.356;2023-04-25T03:14:41;11.40;;;2.57;;
40072;SDS011;25774;52.256;9.356;2023-04-25T03:17:06;8.93;;;2.38;;
40072;SDS011;25774;52.256;9.356;2023-04-25T03:19:32;10.53;;;2.53;;
40072;SDS011;25774;52.256;9.356;2023-04-25T03:21:57;9.97;;;2.47;;
40072;SDS011;25774;52.256;9.356;2023-04-25T03:24:22;10.67;;;2.60;;
40072;SDS011;25774;52.256;9.356;2023-04-25T03:26:47;15.65;;;2.70;;
40072;SDS011;25774;52.256;9.356;2023-04-25T03:29:12;13.60;;;2.37;;
40072;SDS011;25774;52.256;9.356;2023-04-25T03:31:38;8.67;;;2.00;;
40072;SDS011;25774;52.256;9.356;2023-04-25T03:34:03;13.07;;;2.47;;
40072;SDS011;25774;52.256;9.356;2023-04-25T03:36:28;13.67;;;2.43;;
40072;SDS011;25774;52.256;9.356;2023-04-25T03:38:53;11.50;;;2.03;;
40072;SDS011;25774;52.256;9.356;2023-04-25T03:41:18;15.20;;;2.70;;
40072;SDS011;25774;52.256;9.356;2023-04-25T03:43:44;12.77;;;1.87;;
40072;SDS011;25774;52.256;9.356;2023-04-25T03:46:09;17.17;;;3.40;;
40072;SDS011;25774;52.256;9.356;2023-04-25T03:48:34;11.73;;;2.00;;
40072;SDS011;25774;52.256;9.356;2023-04-25T03:50:59;10.57;;;1.87;;
40072;SDS011;25774;52.256;9.356;2023-04-25T03:53:25;15.13;;;2.43;;
40072;SDS011;25774;52.256;9.356;2023-04-25T03:55:50;7.53;;;2.17;;
40072;SDS011;25774;52.256;9.356;2023-04-25T03:58:15;15.63;;;2.90;;
40072;SDS011;25774;52.256;9.356;2023-04-25T04:00:40;11.33;;;2.20;;
40072;SDS011;25774;52.256;9.356;2023-04-25T04:03:05;16.00;;;2.50;;
40072;SDS011;25774;52.256;9.356;2023-04-25T04:05:31;7.60;;;2.20;;
40072;SDS011;25774;52.256;9.356;2023-04-25T04:07:57;15.57;;;2.85;;
40072;SDS011;25774;52.256;9.356;2023-04-25T04:10:22;20.07;;;2.70;;
40072;SDS011;25774;52.256;9.356;2023-04-25T04:12:48;9.63;;;2.50;;
40072;SDS011;25774;52.256;9.356;2023-04-25T04:15:13;13.77;;;2.07;;
40072;SDS011;25774;52.256;9.356;2023-04-25T04:17:38;14.50;;;3.23;;
40072;SDS011;25774;52.256;9.356;2023-04-25T04:20:04;19.23;;;3.10;;
40072;SDS011;25774;52.256;9.356;2023-04-25T04:22:29;13.73;;;2.75;;
40072;SDS011;25774;52.256;9.356;2023-04-25T04:24:54;11.27;;;2.80;;
40072;SDS011;25774;52.256;9.356;2023-04-25T04:27:22;9.10;;;2.80;;
40072;SDS011;25774;52.256;9.356;2023-04-25T04:29:48;15.02;;;4.03;;
40072;SDS011;25774;52.256;9.356;2023-04-25T04:32:13;14.57;;;2.53;;
40072;SDS011;25774;52.256;9.356;2023-04-25T04:34:39;15.82;;;2.75;;
40072;SDS011;25774;52.256;9.356;2023-04-25T04:37:04;10.63;;;2.47;;
40072;SDS011;25774;52.256;9.356;2023-04-25T04:39:30;17.87;;;2.60;;
40072;SDS011;25774;52.256;9.356;2023-04-25T04:41:55;9.60;;;2.60;;
40072;SDS011;25774;52.256;9.356;2023-04-25T04:44:20;10.37;;;2.63;;
40072;SDS011;25774;52.256;9.356;2023-04-25T04:46:46;18.23;;;2.93;;
40072;SDS011;25774;52.256;9.356;2023-04-25T04:49:12;13.97;;;3.03;;
40072;SDS011;25774;52.256;9.356;2023-04-25T04:51:39;18.20;;;2.65;;
40072;SDS011;25774;52.256;9.356;2023-04-25T04:54:04;11.67;;;2.80;;
40072;SDS011;25774;52.256;9.356;2023-04-25T04:56:29;10.03;;;2.07;;
40072;SDS011;25774;52.256;9.356;2023-04-25T04:58:58;9.48;;;2.47;;
40072;SDS011;25774;52.256;9.356;2023-04-25T05:01:29;11.97;;;3.07;;
40072;SDS011;25774;52.256;9.356;2023-04-25T05:03:57;14.98;;;3.28;;
40072;SDS011;25774;52.256;9.356;2023-04-25T05:06:25;13.10;;;2.72;;
40072;SDS011;25774;52.256;9.356;2023-04-25T05:08:51;14.40;;;1.97;;
40072;SDS011;25774;52.256;9.356;2023-04-25T05:11:17;11.48;;;2.92;;
40072;SDS011;25774;52.256;9.356;2023-04-25T05:13:42;10.27;;;2.37;;
40072;SDS011;25774;52.256;9.356;2023-04-25T05:16:09;7.13;;;1.80;;
40072;SDS011;25774;52.256;9.356;2023-04-25T05:18:36;14.52;;;2.38;;
40072;SDS011;25774;52.256;9.356;2023-04-25T05:21:01;14.75;;;3.65;;
40072;SDS011;25774;52.256;9.356;2023-04-25T05:23:26;10.43;;;2.43;;
40072;SDS011;25774;52.256;9.356;2023-04-25T05:25:52;18.73;;;2.40;;
40072;SDS011;25774;52.256;9.356;2023-04-25T05:28:18;7.47;;;1.93;;
40072;SDS011;25774;52.256;9.356;2023-04-25T05:30:43;13.50;;;3.67;;
40072;SDS011;25774;52.256;9.356;2023-04-25T05:33:08;9.23;;;2.43;;
40072;SDS011;25774;52.256;9.356;2023-04-25T05:35:33;15.50;;;2.40;;
40072;SDS011;25774;52.256;9.356;2023-04-25T05:37:59;12.60;;;2.28;;
40072;SDS011;25774;52.256;9.356;2023-04-25T05:40:25;19.80;;;2.50;;
40072;SDS011;25774;52.256;9.356;2023-04-25T05:42:52;8.95;;;2.53;;
40072;SDS011;25774;52.256;9.356;2023-04-25T05:45:17;10.50;;;2.87;;
40072;SDS011;25774;52.256;9.356;2023-04-25T05:47:48;11.57;;;2.30;;
40072;SDS011;25774;52.256;9.356;2023-04-25T05:50:14;8.23;;;2.53;;
40072;SDS011;25774;52.256;9.356;2023-04-25T05:52:39;9.87;;;2.23;;
40072;SDS011;25774;52.256;9.356;2023-04-25T05:55:05;18.33;;;2.63;;
40072;SDS011;25774;52.256;9.356;2023-04-25T05:57:30;8.77;;;2.25;;
40072;SDS011;25774;52.256;9.356;2023-04-25T05:59:56;16.27;;;3.80;;
40072;SDS011;25774;52.256;9.356;2023-04-25T06:02:22;12.10;;;2.15;;
40072;SDS011;25774;52.256;9.356;2023-04-25T06:04:51;10.53;;;2.23;;
40072;SDS011;25774;52.256;9.356;2023-04-25T06:07:17;11.93;;;2.30;;
40072;SDS011;25774;52.256;9.356;2023-04-25T06:09:42;16.77;;;2.80;;
40072;SDS011;25774;52.256;9.356;2023-04-25T06:12:07;12.88;;;2.85;;
40072;SDS011;25774;52.256;9.356;2023-04-25T06:14:33;14.37;;;3.00;;
40072;SDS011;25774;52.256;9.356;2023-04-25T06:16:59;11.87;;;2.50;;
40072;SDS011;25774;52.256;9.356;2023-04-25T06:19:25;12.18;;;2.75;;
40072;SDS011;25774;52.256;9.356;2023-04-25T06:21:51;19.63;;;3.22;;
40072;SDS011;25774;52.256;9.356;2023-04-25T06:24:16;10.07;;;2.60;;
40072;SDS011;25774;52.256;9.356;2023-04-25T06:26:41;7.25;;;2.30;;
40072;SDS011;25774;52.256;9.356;2023-04-25T06:29:06;19.00;;;2.90;;
40072;SDS011;25774;52.256;9.356;2023-04-25T06:31:33;16.60;;;2.33;;
40072;SDS011;25774;52.256;9.356;2023-04-25T06:33:59;14.02;;;3.92;;
40072;SDS011;25774;52.256;9.356;2023-04-25T06:36:25;10.38;;;2.17;;
40072;SDS011;25774;52.256;9.356;2023-04-25T06:38:51;14.23;;;3.55;;
40072;SDS011;25774;52.256;9.356;2023-04-25T06:43:42;7.53;;;2.03;;
40072;SDS011;25774;52.256;9.356;2023-04-25T06:46:07;10.30;;;1.80;;
40072;SDS011;25774;52.256;9.356;2023-04-25T06:48:34;9.90;;;2.10;;
40072;SDS011;25774;52.256;9.356;2023-04-25T06:51:00;10.25;;;2.33;;
40072;SDS011;25774;52.256;9.356;2023-04-25T06:53:25;11.47;;;1.97;;
40072;SDS011;25774;52.256;9.356;2023-04-25T06:55:51;10.47;;;2.23;;
40072;SDS011;25774;52.256;9.356;2023-04-25T06:58:17;8.25;;;2.38;;
40072;SDS011;25774;52.256;9.356;2023-04-25T07:00:42;8.30;;;2.00;;
40072;SDS011;25774;52.256;9.356;2023-04-25T07:03:07;9.00;;;2.20;;
40072;SDS011;25774;52.256;9.356;2023-04-25T07:05:32;8.40;;;2.17;;
40072;SDS011;25774;52.256;9.356;2023-04-25T07:07:58;12.73;;;2.83;;
40072;SDS011;25774;52.256;9.356;2023-04-25T07:10:23;11.80;;;2.50;;
40072;SDS011;25774;52.256;9.356;2023-04-25T07:12:48;12.40;;;2.43;;
40072;SDS011;25774;52.256;9.356;2023-04-25T07:15:13;12.10;;;2.33;;
40072;SDS011;25774;52.256;9.356;2023-04-25T07:17:39;12.23;;;2.97;;
40072;SDS011;25774;52.256;9.356;2023-04-25T07:20:05;7.18;;;1.95;;
40072;SDS011;25774;52.256;9.356;2023-04-25T07:22:31;14.38;;;2.30;;
40072;SDS011;25774;52.256;9.356;2023-04-25T07:25:03;14.27;;;2.17;;
40072;SDS011;25774;52.256;9.356;2023-04-25T07:27:31;13.38;;;2.67;;
40072;SDS011;25774;52.256;9.356;2023-04-25T07:29:56;11.52;;;1.88;;
40072;SDS011;25774;52.256;9.356;2023-04-25T07:32:22;9.15;;;2.00;;
40072;SDS011;25774;52.256;9.356;2023-04-25T07:34:47;4.07;;;1.67;;
40072;SDS011;25774;52.256;9.356;2023-04-25T07:37:13;8.20;;;1.77;;
40072;SDS011;25774;52.256;9.356;2023-04-25T07:42:04;5.07;;;1.38;;
40072;SDS011;25774;52.256;9.356;2023-04-25T07:44:31;17.58;;;3.30;;
40072;SDS011;25774;52.256;9.356;2023-04-25T07:46:56;6.97;;;1.27;;
40072;SDS011;25774;52.256;9.356;2023-04-25T07:49:21;9.17;;;1.67;;
40072;SDS011;25774;52.256;9.356;2023-04-25T07:51:46;7.50;;;1.50;;
40072;SDS011;25774;52.256;9.356;2023-04-25T07:54:13;10.03;;;1.57;;
40072;SDS011;25774;52.256;9.356;2023-04-25T07:56:38;9.98;;;1.20;;
40072;SDS011;25774;52.256;9.356;2023-04-25T07:59:03;7.30;;;1.17;;
40072;SDS011;25774;52.256;9.356;2023-04-25T08:01:29;7.27;;;1.30;;
40072;SDS011;25774;52.256;9.356;2023-04-25T08:03:54;6.57;;;2.03;;
40072;SDS011;25774;52.256;9.356;2023-04-25T08:06:19;7.33;;;1.30;;
40072;SDS011;25774;52.256;9.356;2023-04-25T08:08:45;6.37;;;1.47;;
40072;SDS011;25774;52.256;9.356;2023-04-25T08:11:10;7.03;;;1.23;;
40072;SDS011;25774;52.256;9.356;2023-04-25T08:13:35;8.37;;;2.10;;
40072;SDS011;25774;52.256;9.356;2023-04-25T08:16:01;6.93;;;1.40;;
40072;SDS011;25774;52.256;9.356;2023-04-25T08:18:26;8.40;;;1.53;;
40072;SDS011;25774;52.256;9.356;2023-04-25T08:20:51;8.90;;;1.47;;
40072;SDS011;25774;52.256;9.356;2023-04-25T08:23:16;7.87;;;1.40;;
40072;SDS011;25774;52.256;9.356;2023-04-25T08:25:41;9.13;;;1.90;;
40072;SDS011;25774;52.256;9.356;2023-04-25T08:28:07;13.03;;;2.23;;
40072;SDS011;25774;52.256;9.356;2023-04-25T08:30:32;8.17;;;2.27;;
40072;SDS011;25774;52.256;9.356;2023-04-25T08:32:57;5.17;;;1.30;;
40072;SDS011;25774;52.256;9.356;2023-04-25T08:35:22;7.90;;;1.23;;
40072;SDS011;25774;52.256;9.356;2023-04-25T08:37:48;7.60;;;1.30;;
40072;SDS011;25774;52.256;9.356;2023-04-25T08:40:14;5.22;;;0.98;;
40072;SDS011;25774;52.256;9.356;2023-04-25T08:42:40;5.87;;;1.33;;
40072;SDS011;25774;52.256;9.356;2023-04-25T08:45:06;11.18;;;1.55;;
40072;SDS011;25774;52.256;9.356;2023-04-25T08:47:32;8.77;;;1.60;;
40072;SDS011;25774;52.256;9.356;2023-04-25T08:50:00;7.93;;;1.38;;
40072;SDS011;25774;52.256;9.356;2023-04-25T08:52:30;11.63;;;1.70;;
40072;SDS011;25774;52.256;9.356;2023-04-25T08:54:57;5.72;;;1.13;;
40072;SDS011;25774;52.256;9.356;2023-04-25T08:57:23;8.00;;;1.23;;
40072;SDS011;25774;52.256;9.356;2023-04-25T08:59:48;11.43;;;1.55;;
40072;SDS011;25774;52.256;9.356;2023-04-25T09:02:14;6.53;;;1.30;;
40072;SDS011;25774;52.256;9.356;2023-04-25T09:04:43;4.22;;;1.10;;
40072;SDS011;25774;52.256;9.356;2023-04-25T09:07:08;7.78;;;1.35;;
40072;SDS011;25774;52.256;9.356;2023-04-25T09:09:34;6.03;;;1.00;;
40072;SDS011;25774;52.256;9.356;2023-04-25T09:12:00;8.95;;;1.27;;
40072;SDS011;25774;52.256;9.356;2023-04-25T09:14:26;9.02;;;1.38;;
40072;SDS011;25774;52.256;9.356;2023-04-25T09:17:02;5.75;;;1.35;;
40072;SDS011;25774;52.256;9.356;2023-04-25T09:19:32;7.93;;;1.35;;
40072;SDS011;25774;52.256;9.356;2023-04-25T09:22:00;5.28;;;1.02;;
40072;SDS011;25774;52.256;9.356;2023-04-25T09:24:32;9.35;;;1.50;;
40072;SDS011;25774;52.256;9.356;2023-04-25T09:26:58;5.30;;;1.13;;
40072;SDS011;25774;52.256;9.356;2023-04-25T09:32:19;8.75;;;1.27;;
40072;SDS011;25774;52.256;9.356;2023-04-25T09:37:13;4.13;;;1.00;;
40072;SDS011;25774;52.256;9.356;2023-04-25T09:39:42;5.68;;;1.33;;
40072;SDS011;25774;52.256;9.356;2023-04-25T09:42:11;4.93;;;0.80;;
40072;SDS011;25774;52.256;9.356;2023-04-25T09:44:36;5.45;;;1.02;;
40072;SDS011;25774;52.256;9.356;2023-04-25T09:47:01;5.30;;;0.93;;
40072;SDS011;25774;52.256;9.356;2023-04-25T09:49:28;4.22;;;1.10;;
40072;SDS011;25774;52.256;9.356;2023-04-25T09:51:55;4.97;;;0.82;;
40072;SDS011;25774;52.256;9.356;2023-04-25T09:54:21;5.22;;;1.02;;
40072;SDS011;25774;52.256;9.356;2023-04-25T09:56:46;6.47;;;1.00;;
40072;SDS011;25774;52.256;9.356;2023-04-25T09:59:13;6.78;;;0.90;;
40072;SDS011;25774;52.256;9.356;2023-04-25T10:01:39;6.82;;;1.00;;
40072;SDS011;25774;52.256;9.356;2023-04-25T10:04:05;8.00;;;1.17;;
40072;SDS011;25774;52.256;9.356;2023-04-25T10:06:31;6.78;;;1.23;;
40072;SDS011;25774;52.256;9.356;2023-04-25T10:08:58;5.65;;;1.38;;
40072;SDS011;25774;52.256;9.356;2023-04-25T10:11:23;5.43;;;0.97;;
40072;SDS011;25774;52.256;9.356;2023-04-25T10:13:49;3.50;;;0.70;;
40072;SDS011;25774;52.256;9.356;2023-04-25T10:16:15;4.03;;;0.80;;
40072;SDS011;25774;52.256;9.356;2023-04-25T10:18:41;4.60;;;0.80;;
40072;SDS011;25774;52.256;9.356;2023-04-25T10:21:06;5.07;;;1.00;;
40072;SDS011;25774;52.256;9.356;2023-04-25T10:23:32;6.67;;;1.00;;
40072;SDS011;25774;52.256;9.356;2023-04-25T10:26:00;4.47;;;0.82;;
40072;SDS011;25774;52.256;9.356;2023-04-25T10:28:25;5.18;;;1.02;;
40072;SDS011;25774;52.256;9.356;2023-04-25T10:33:29;5.70;;;1.02;;
40072;SDS011;25774;52.256;9.356;2023-04-25T10:35:57;6.88;;;1.08;;
40072;SDS011;25774;52.256;9.356;2023-04-25T10:38:23;5.90;;;1.00;;
40072;SDS011;25774;52.256;9.356;2023-04-25T10:41:05;4.93;;;1.10;;
40072;SDS011;25774;52.256;9.356;2023-04-25T10:43:46;3.25;;;0.82;;
40072;SDS011;25774;52.256;9.356;2023-04-25T10:46:24;5.82;;;1.38;;
40072;SDS011;25774;52.256;9.356;2023-04-25T10:48:50;5.03;;;0.93;;
40072;SDS011;25774;52.256;9.356;2023-04-25T10:53:41;2.85;;;0.70;;
40072;SDS011;25774;52.256;9.356;2023-04-25T10:56:10;4.20;;;0.93;;
40072;SDS011;25774;52.256;9.356;2023-04-25T10:58:35;5.55;;;0.80;;
40072;SDS011;25774;52.256;9.356;2023-04-25T11:01:01;4.17;;;0.90;;
40072;SDS011;25774;52.256;9.356;2023-04-25T11:03:26;6.57;;;0.90;;
40072;SDS011;25774;52.256;9.356;2023-04-25T11:05:52;5.10;;;0.87;;
40072;SDS011;25774;52.256;9.356;2023-04-25T11:08:18;2.90;;;0.60;;
40072;SDS011;25774;52.256;9.356;2023-04-25T11:10:49;6.03;;;0.98;;
40072;SDS011;25774;52.256;9.356;2023-04-25T11:13:15;3.13;;;1.03;;
40072;SDS011;25774;52.256;9.356;2023-04-25T11:15:40;2.97;;;0.77;;
40072;SDS011;25774;52.256;9.356;2023-04-25T11:18:06;2.00;;;0.70;;
40072;SDS011;25774;52.256;9.356;2023-04-25T11:20:32;4.07;;;1.00;;
40072;SDS011;25774;52.256;9.356;2023-04-25T11:22:58;4.65;;;0.95;;
40072;SDS011;25774;52.256;9.356;2023-04-25T11:25:25;4.38;;;0.80;;
40072;SDS011;25774;52.256;9.356;2023-04-25T11:27:54;2.13;;;0.88;;
40072;SDS011;25774;52.256;9.356;2023-04-25T11:30:21;6.22;;;1.00;;
40072;SDS011;25774;52.256;9.356;2023-04-25T11:35:12;3.25;;;1.08;;
40072;SDS011;25774;52.256;9.356;2023-04-25T11:37:41;5.07;;;1.00;;
40072;SDS011;25774;52.256;9.356;2023-04-25T11:40:07;5.13;;;0.85;;
40072;SDS011;25774;52.256;9.356;2023-04-25T11:42:33;9.80;;;0.77;;
40072;SDS011;25774;52.256;9.356;2023-04-25T11:44:59;2.70;;;1.07;;
40072;SDS011;25774;52.256;9.356;2023-04-25T11:47:31;4.03;;;0.60;;
40072;SDS011;25774;52.256;9.356;2023-04-25T11:49:59;5.50;;;1.10;;
40072;SDS011;25774;52.256;9.356;2023-04-25T11:52:39;4.20;;;0.93;;
40072;SDS011;25774;52.256;9.356;2023-04-25T11:57:33;3.00;;;1.05;;
40072;SDS011;25774;52.256;9.356;2023-04-25T12:00:32;2.10;;;0.70;;
40072;SDS011;25774;52.256;9.356;2023-04-25T12:02:51;2.85;;;0.70;;
40072;SDS011;25774;52.256;9.356;2023-04-25T12:05:17;3.25;;;0.65;;
40072;SDS011;25774;52.256;9.356;2023-04-25T12:07:42;3.80;;;0.60;;
40072;SDS011;25774;52.256;9.356;2023-04-25T12:10:09;2.63;;;0.93;;
40072;SDS011;25774;52.256;9.356;2023-04-25T12:12:35;4.60;;;0.77;;
40072;SDS011;25774;52.256;9.356;2023-04-25T12:17:40;3.30;;;0.50;;
40072;SDS011;25774;52.256;9.356;2023-04-25T12:20:12;3.05;;;0.70;;
40072;SDS011;25774;52.256;9.356;2023-04-25T12:22:39;3.88;;;0.68;;
40072;SDS011;25774;52.256;9.356;2023-04-25T12:25:06;7.20;;;0.60;;
40072;SDS011;25774;52.256;9.356;2023-04-25T12:27:32;2.78;;;0.50;;
40072;SDS011;25774;52.256;9.356;2023-04-25T12:29:59;2.38;;;0.73;;
40072;SDS011;25774;52.256;9.356;2023-04-25T12:32:24;1.73;;;0.52;;
40072;SDS011;25774;52.256;9.356;2023-04-25T12:34:52;3.70;;;0.80;;
40072;SDS011;25774;52.256;9.356;2023-04-25T12:39:43;1.40;;;0.50;;
40072;SDS011;25774;52.256;9.356;2023-04-25T12:42:09;2.65;;;0.70;;
40072;SDS011;25774;52.256;9.356;2023-04-25T12:44:37;4.03;;;0.70;;
40072;SDS011;25774;52.256;9.356;2023-04-25T12:47:03;4.30;;;0.70;;
40072;SDS011;25774;52.256;9.356;2023-04-25T12:49:30;3.75;;;0.75;;
40072;SDS011;25774;52.256;9.356;2023-04-25T12:54:22;4.70;;;0.70;;
40072;SDS011;25774;52.256;9.356;2023-04-25T12:56:47;3.22;;;0.65;;
40072;SDS011;25774;52.256;9.356;2023-04-25T12:59:13;3.23;;;0.50;;
40072;SDS011;25774;52.256;9.356;2023-04-25T13:01:39;3.67;;;0.73;;
40072;SDS011;25774;52.256;9.356;2023-04-25T13:04:04;4.00;;;0.83;;
40072;SDS011;25774;52.256;9.356;2023-04-25T13:06:29;3.37;;;0.50;;
40072;SDS011;25774;52.256;9.356;2023-04-25T13:11:21;3.30;;;0.57;;
40072;SDS011;25774;52.256;9.356;2023-04-25T13:13:46;4.60;;;1.07;;
40072;SDS011;25774;52.256;9.356;2023-04-25T13:16:11;3.13;;;0.70;;
40072;SDS011;25774;52.256;9.356;2023-04-25T13:18:39;3.38;;;0.80;;
40072;SDS011;25774;52.256;9.356;2023-04-25T13:21:04;6.37;;;1.00;;
40072;SDS011;25774;52.256;9.356;2023-04-25T13:23:29;2.43;;;0.50;;
40072;SDS011;25774;52.256;9.356;2023-04-25T13:25:55;2.88;;;0.80;;
40072;SDS011;25774;52.256;9.356;2023-04-25T13:28:25;5.28;;;1.00;;
40072;SDS011;25774;52.256;9.356;2023-04-25T13:30:51;5.60;;;1.00;;
40072;SDS011;25774;52.256;9.356;2023-04-25T13:33:18;3.75;;;0.70;;
40072;SDS011;25774;52.256;9.356;2023-04-25T13:35:44;5.38;;;0.88;;
40072;SDS011;25774;52.256;9.356;2023-04-25T13:38:19;4.47;;;0.75;;
40072;SDS011;25774;52.256;9.356;2023-04-25T13:40:44;1.92;;;0.55;;
40072;SDS011;25774;52.256;9.356;2023-04-25T13:43:10;2.88;;;0.55;;
40072;SDS011;25774;52.256;9.356;2023-04-25T13:45:36;4.25;;;0.70;;
40072;SDS011;25774;52.256;9.356;2023-04-25T13:48:01;2.63;;;0.43;;
40072;SDS011;25774;52.256;9.356;2023-04-25T13:50:26;7.07;;;1.27;;
40072;SDS011;25774;52.256;9.356;2023-04-25T13:52:51;6.33;;;0.67;;
40072;SDS011;25774;52.256;9.356;2023-04-25T13:55:17;5.47;;;1.00;;
40072;SDS011;25774;52.256;9.356;2023-04-25T13:57:42;2.77;;;0.70;;
40072;SDS011;25774;52.256;9.356;2023-04-25T14:00:08;3.73;;;0.73;;
40072;SDS011;25774;52.256;9.356;2023-04-25T14:02:36;3.58;;;0.80;;
40072;SDS011;25774;52.256;9.356;2023-04-25T14:05:01;4.97;;;1.00;;
40072;SDS011;25774;52.256;9.356;2023-04-25T14:07:29;4.15;;;0.80;;
40072;SDS011;25774;52.256;9.356;2023-04-25T14:09:55;7.05;;;0.82;;
40072;SDS011;25774;52.256;9.356;2023-04-25T14:12:22;3.70;;;1.33;;
40072;SDS011;25774;52.256;9.356;2023-04-25T14:14:47;10.80;;;1.27;;
40072;SDS011;25774;52.256;9.356;2023-04-25T14:17:12;2.63;;;0.70;;
40072;SDS011;25774;52.256;9.356;2023-04-25T14:19:38;4.83;;;0.67;;
40072;SDS011;25774;52.256;9.356;2023-04-25T14:22:08;3.25;;;0.70;;
40072;SDS011;25774;52.256;9.356;2023-04-25T14:24:33;4.87;;;1.07;;
40072;SDS011;25774;52.256;9.356;2023-04-25T14:26:58;4.33;;;1.33;;
40072;SDS011;25774;52.256;9.356;2023-04-25T14:29:24;3.87;;;0.60;;
40072;SDS011;25774;52.256;9.356;2023-04-25T14:31:49;4.10;;;0.83;;
40072;SDS011;25774;52.256;9.356;2023-04-25T14:34:16;2.93;;;0.57;;
40072;SDS011;25774;52.256;9.356;2023-04-25T14:36:41;1.60;;;0.70;;
40072;SDS011;25774;52.256;9.356;2023-04-25T14:39:07;4.07;;;0.77;;
40072;SDS011;25774;52.256;9.356;2023-04-25T14:41:32;2.57;;;0.90;;
40072;SDS011;25774;52.256;9.356;2023-04-25T14:43:57;2.27;;;0.60;;
40072;SDS011;25774;52.256;9.356;2023-04-25T14:46:23;4.43;;;1.00;;
40072;SDS011;25774;52.256;9.356;2023-04-25T14:48:48;2.15;;;0.93;;
40072;SDS011;25774;52.256;9.356;2023-04-25T14:51:14;2.60;;;0.90;;
40072;SDS011;25774;52.256;9.356;2023-04-25T14:53:39;6.50;;;0.90;;
40072;SDS011;25774;52.256;9.356;2023-04-25T14:56:05;4.03;;;0.60;;
40072;SDS011;25774;52.256;9.356;2023-04-25T14:58:30;3.87;;;0.70;;
40072;SDS011;25774;52.256;9.356;2023-04-25T15:00:56;5.15;;;0.98;;
40072;SDS011;25774;52.256;9.356;2023-04-25T15:03:21;2.40;;;0.57;;
40072;SDS011;25774;52.256;9.356;2023-04-25T15:05:46;5.13;;;0.83;;
40072;SDS011;25774;52.256;9.356;2023-04-25T15:08:12;2.57;;;0.50;;
40072;SDS011;25774;52.256;9.356;2023-04-25T15:10:37;4.53;;;1.00;;